createdAt,value
2023-07-17T00:01:26.072Z,21.90
2023-07-17T00:04:12.097Z,21.80
2023-07-17T00:06:57.843Z,21.80
2023-07-17T00:09:44.740Z,21.50
2023-07-17T00:12:30.716Z,21.30
2023-07-17T00:15:16.805Z,21.10
2023-07-17T00:18:03.772Z,21.10
2023-07-17T00:20:50.375Z,21.10
2023-07-17T00:23:36.064Z,21.30
2023-07-17T00:26:22.270Z,21.00
2023-07-17T00:29:25.003Z,21.10
2023-07-17T00:32:10.684Z,21.10
2023-07-17T00:34:58.400Z,21.10
2023-07-17T00:37:44.393Z,21.10
2023-07-17T00:40:31.972Z,20.80
2023-07-17T00:43:18.991Z,20.80
2023-07-17T00:46:05.446Z,21.00
2023-07-17T00:48:51.391Z,20.90
2023-07-17T00:51:40.744Z,20.80
2023-07-17T00:54:28.796Z,20.80
2023-07-17T00:57:17.097Z,20.90
2023-07-17T01:00:05.128Z,20.70
2023-07-17T01:02:55.908Z,20.70
2023-07-17T01:05:41.805Z,20.70
2023-07-17T01:08:28.793Z,20.70
2023-07-17T01:11:15.667Z,20.70
2023-07-17T01:14:01.617Z,20.60
2023-07-17T01:16:48.936Z,20.50
2023-07-17T01:19:34.783Z,20.30
2023-07-17T01:22:24.229Z,20.40
2023-07-17T01:25:11.263Z,20.30
2023-07-17T01:27:58.522Z,20.40
2023-07-17T01:30:44.497Z,20.40
2023-07-17T01:33:30.448Z,20.00
2023-07-17T01:36:16.738Z,20.10
2023-07-17T01:39:03.221Z,20.00
2023-07-17T01:41:50.934Z,20.10
2023-07-17T01:44:37.390Z,19.90
2023-07-17T01:47:25.207Z,19.70
2023-07-17T01:50:11.259Z,19.70
2023-07-17T01:52:57.572Z,19.70
2023-07-17T01:55:43.750Z,19.50
2023-07-17T01:58:30.860Z,19.60
2023-07-17T02:01:17.268Z,19.50
2023-07-17T02:04:03.607Z,19.60
2023-07-17T02:06:49.103Z,19.50
2023-07-17T02:09:34.686Z,19.50
2023-07-17T02:12:20.563Z,19.50
2023-07-17T02:15:12.341Z,19.50
2023-07-17T02:17:58.131Z,19.40
2023-07-17T02:20:44.360Z,19.20
2023-07-17T02:23:30.317Z,19.20
2023-07-17T02:26:15.933Z,19.20
2023-07-17T02:29:02.129Z,19.20
2023-07-17T02:31:49.403Z,19.20
2023-07-17T02:34:35.364Z,19.00
2023-07-17T02:37:20.863Z,19.00
2023-07-17T02:40:13.525Z,19.20
2023-07-17T02:42:59.280Z,19.10
2023-07-17T02:45:45.393Z,19.10
2023-07-17T02:48:32.705Z,19.10
2023-07-17T02:51:20.498Z,19.10
2023-07-17T02:54:06.627Z,18.90
2023-07-17T02:56:52.132Z,19.00
2023-07-17T02:59:37.848Z,19.00
2023-07-17T03:02:23.656Z,19.00
2023-07-17T03:05:12.294Z,18.90
2023-07-17T03:07:57.944Z,18.70
2023-07-17T03:10:45.364Z,18.70
2023-07-17T03:13:31.383Z,18.70
2023-07-17T03:16:18.163Z,18.80
2023-07-17T03:19:04.279Z,18.80
2023-07-17T03:21:51.501Z,18.70
2023-07-17T03:24:37.234Z,18.80
2023-07-17T03:27:23.332Z,18.90
2023-07-17T03:30:10.434Z,18.60
2023-07-17T03:32:56.390Z,18.40
2023-07-17T03:35:41.939Z,18.50
2023-07-17T03:38:29.134Z,18.50
2023-07-17T03:41:14.716Z,18.50
2023-07-17T03:44:03.272Z,18.40
2023-07-17T03:46:49.514Z,18.50
2023-07-17T03:49:38.980Z,18.20
2023-07-17T03:52:25.280Z,18.60
2023-07-17T03:55:12.252Z,18.50
2023-07-17T03:57:57.866Z,18.50
2023-07-17T04:00:43.862Z,18.60
2023-07-17T04:03:30.389Z,18.60
2023-07-17T04:06:16.075Z,18.50
2023-07-17T04:09:04.294Z,18.60
2023-07-17T04:11:51.545Z,18.50
2023-07-17T04:14:38.917Z,18.60
2023-07-17T04:17:26.467Z,18.70
2023-07-17T04:20:12.762Z,18.60
2023-07-17T04:22:59.494Z,18.50
2023-07-17T04:25:45.686Z,18.70
2023-07-17T04:28:33.225Z,18.70
2023-07-17T04:31:19.923Z,18.70
2023-07-17T04:34:06.133Z,18.90
2023-07-17T04:36:52.247Z,18.80
2023-07-17T04:39:38.404Z,19.00
2023-07-17T04:42:25.251Z,19.20
2023-07-17T04:45:13.778Z,19.70
2023-07-17T04:48:00.443Z,20.40
2023-07-17T04:50:46.898Z,21.10
2023-07-17T04:53:33.505Z,21.60
2023-07-17T04:56:19.095Z,22.30
2023-07-17T04:59:06.283Z,22.90
2023-07-17T05:01:54.239Z,23.30
2023-07-17T05:04:42.128Z,23.30
2023-07-17T05:07:28.629Z,23.40
2023-07-17T05:10:16.136Z,23.70
2023-07-17T05:13:02.798Z,24.00
2023-07-17T05:15:48.714Z,24.30
2023-07-17T05:18:37.517Z,24.80
2023-07-17T05:21:24.206Z,25.30
2023-07-17T05:24:09.822Z,25.60
2023-07-17T05:26:55.804Z,25.50
2023-07-17T05:29:41.494Z,26.20
2023-07-17T05:32:27.350Z,26.90
2023-07-17T05:35:16.111Z,27.20
2023-07-17T05:38:04.648Z,27.80
2023-07-17T05:40:58.650Z,27.60
2023-07-17T05:43:44.424Z,27.90
2023-07-17T05:46:33.399Z,27.80
2023-07-17T05:49:20.364Z,28.10
2023-07-17T05:52:09.175Z,28.60
2023-07-17T05:54:54.791Z,28.80
2023-07-17T05:57:41.209Z,29.60
2023-07-17T06:00:27.080Z,29.90
2023-07-17T06:03:13.192Z,30.20
2023-07-17T06:05:58.999Z,29.40
2023-07-17T06:08:46.641Z,29.80
2023-07-17T06:11:32.582Z,30.30
2023-07-17T06:14:19.601Z,30.10
2023-07-17T06:17:06.034Z,30.60
2023-07-17T06:19:51.705Z,30.50
2023-07-17T06:22:37.769Z,31.40
2023-07-17T06:25:24.924Z,31.90
2023-07-17T06:28:10.935Z,31.20
2023-07-17T06:30:57.264Z,31.70
2023-07-17T06:33:43.174Z,31.60
2023-07-17T06:36:29.247Z,31.30
2023-07-17T06:39:15.164Z,30.80
2023-07-17T06:42:06.065Z,30.10
2023-07-17T06:44:51.876Z,29.00
2023-07-17T06:47:38.321Z,28.50
2023-07-17T06:50:24.138Z,27.40
2023-07-17T06:53:09.826Z,27.30
2023-07-17T06:56:01.228Z,26.70
2023-07-17T06:58:48.451Z,25.70
2023-07-17T07:01:34.418Z,24.60
2023-07-17T07:04:20.424Z,24.50
2023-07-17T07:07:06.832Z,24.80
2023-07-17T07:09:52.578Z,25.10
2023-07-17T07:12:38.697Z,25.80
2023-07-17T07:15:25.806Z,28.10
2023-07-17T07:18:11.780Z,30.50
2023-07-17T07:20:57.430Z,31.10
2023-07-17T07:23:42.969Z,32.80
2023-07-17T07:26:28.930Z,33.70
2023-07-17T07:29:14.602Z,33.10
2023-07-17T07:32:02.266Z,31.50
2023-07-17T07:34:48.738Z,29.10
2023-07-17T07:37:34.294Z,28.90
2023-07-17T07:40:20.034Z,29.40
2023-07-17T07:43:05.824Z,28.50
2023-07-17T07:45:51.840Z,28.10
2023-07-17T07:48:38.823Z,28.80
2023-07-17T07:51:24.720Z,28.90
2023-07-17T07:54:20.875Z,29.50
2023-07-17T07:57:08.012Z,30.40
2023-07-17T07:59:54.014Z,31.80
2023-07-17T08:02:39.821Z,32.80
2023-07-17T08:05:27.153Z,32.40
2023-07-17T08:08:13.095Z,32.40
2023-07-17T08:10:58.879Z,31.70
2023-07-17T08:13:44.700Z,31.60
2023-07-17T08:16:30.610Z,31.80
2023-07-17T08:19:17.147Z,31.60
2023-07-17T08:22:04.666Z,31.50
2023-07-17T08:24:50.813Z,31.50
2023-07-17T08:27:36.426Z,31.40
2023-07-17T08:30:22.167Z,30.80
2023-07-17T08:33:08.609Z,30.60
2023-07-17T08:35:54.178Z,31.00
2023-07-17T08:38:41.446Z,30.70
2023-07-17T08:41:27.867Z,31.40
2023-07-17T08:44:16.866Z,32.40
2023-07-17T08:47:06.955Z,31.80
2023-07-17T08:49:53.026Z,32.10
2023-07-17T08:52:39.954Z,32.40
2023-07-17T08:55:30.414Z,32.10
2023-07-17T08:58:16.303Z,31.30
2023-07-17T09:01:02.472Z,30.70
2023-07-17T09:03:50.331Z,29.80
2023-07-17T09:06:36.238Z,29.20
2023-07-17T09:09:22.545Z,28.30
2023-07-17T09:12:10.700Z,28.00
2023-07-17T09:14:57.079Z,28.20
2023-07-17T09:17:44.183Z,28.10
2023-07-17T16:15:22.686Z,27.10
2023-07-17T16:18:08.915Z,26.80
2023-07-17T16:20:57.907Z,26.50
2023-07-17T16:23:44.185Z,26.20
2023-07-17T16:26:30.167Z,26.40
2023-07-17T16:29:20.206Z,26.10
2023-07-17T16:32:08.395Z,26.00
2023-07-17T16:34:54.226Z,26.10
2023-07-17T16:37:39.595Z,26.70
2023-07-17T16:40:30.790Z,26.50
2023-07-17T16:43:18.740Z,26.10
2023-07-17T16:46:04.940Z,25.90
2023-07-17T16:49:08.061Z,25.40
2023-07-17T16:51:55.571Z,25.30
2023-07-17T16:54:48.913Z,25.10
2023-07-17T16:57:38.012Z,25.10
2023-07-17T17:00:25.853Z,25.50
2023-07-17T17:03:11.949Z,25.30
2023-07-17T17:05:59.755Z,25.20
2023-07-17T17:08:45.698Z,25.00
2023-07-17T17:11:31.246Z,25.30
2023-07-17T17:14:17.278Z,25.20
2023-07-17T17:17:04.241Z,25.20
2023-07-17T17:19:50.249Z,25.10
2023-07-17T17:22:43.949Z,25.10
2023-07-17T17:25:29.984Z,24.90
2023-07-17T17:28:17.276Z,24.90
2023-07-17T17:31:03.679Z,24.80
2023-07-17T17:33:49.550Z,24.40
2023-07-17T17:36:37.492Z,23.90
2023-07-17T17:39:24.885Z,23.60
2023-07-17T17:42:10.849Z,23.70
2023-07-17T17:44:59.907Z,23.70
2023-07-17T17:47:46.043Z,23.60
2023-07-17T17:50:32.168Z,23.70
2023-07-17T17:53:21.954Z,23.90
2023-07-17T17:56:09.220Z,23.70
2023-07-17T17:58:55.380Z,23.50
2023-07-17T18:01:41.923Z,23.40
2023-07-17T18:04:27.904Z,23.20
2023-07-17T18:07:14.060Z,23.10
2023-07-17T18:10:00.358Z,23.20
2023-07-17T18:12:47.399Z,23.30
2023-07-17T18:15:33.513Z,23.40
2023-07-17T18:18:19.296Z,23.40
2023-07-17T18:21:07.478Z,23.10
2023-07-17T18:23:53.637Z,23.00
2023-07-17T18:26:39.548Z,23.00
2023-07-17T18:29:26.808Z,22.70
2023-07-17T18:32:12.980Z,22.50
2023-07-17T18:34:58.936Z,22.30
2023-07-17T18:37:44.754Z,22.40
2023-07-17T18:40:30.592Z,22.40
2023-07-17T18:43:17.512Z,22.40
2023-07-17T18:46:04.870Z,22.20
2023-07-17T18:48:51.139Z,22.20
2023-07-17T18:51:40.229Z,22.10
2023-07-17T18:54:25.949Z,22.10
2023-07-17T18:57:12.104Z,22.10
2023-07-17T18:59:58.201Z,21.90
2023-07-17T19:02:46.887Z,22.00
2023-07-17T19:05:32.774Z,22.10
2023-07-17T19:08:18.934Z,22.10
2023-07-17T19:11:05.412Z,22.00
2023-07-17T19:13:51.252Z,22.00
2023-07-17T19:16:37.125Z,21.90
2023-07-17T19:19:24.891Z,21.80
2023-07-17T19:22:11.034Z,21.90
2023-07-17T19:24:57.050Z,21.70
2023-07-17T19:27:44.947Z,21.80
2023-07-17T19:30:34.045Z,21.70
2023-07-17T19:33:19.920Z,21.70
2023-07-17T19:36:07.961Z,21.70
2023-07-17T19:38:56.901Z,21.50
2023-07-17T19:41:45.987Z,21.40
2023-07-17T19:44:34.338Z,21.20
2023-07-17T19:47:20.262Z,21.30
2023-07-17T19:50:07.102Z,21.10
2023-07-17T19:52:54.219Z,21.20
2023-07-17T19:55:40.694Z,21.40
2023-07-17T19:58:28.147Z,21.40
2023-07-17T20:01:13.837Z,21.30
2023-07-17T20:03:59.771Z,21.20
2023-07-17T20:06:45.787Z,21.20
2023-07-17T20:09:34.863Z,21.10
2023-07-17T20:12:23.476Z,21.10
2023-07-17T20:15:09.935Z,21.10
2023-07-17T20:17:55.911Z,20.80
2023-07-17T20:20:42.337Z,20.80
2023-07-17T20:23:28.890Z,20.60
2023-07-17T20:26:19.463Z,20.60
2023-07-17T20:29:06.957Z,20.50
2023-07-17T20:31:53.244Z,20.60
2023-07-17T20:34:40.619Z,20.40
2023-07-17T20:37:26.275Z,20.30
2023-07-17T20:40:12.880Z,20.20
2023-07-17T20:43:00.963Z,20.40
2023-07-17T20:45:49.421Z,20.30
2023-07-17T20:48:35.609Z,20.20
2023-07-17T20:51:21.887Z,20.20
2023-07-17T20:54:09.484Z,20.00
2023-07-17T20:56:55.582Z,20.20
2023-07-17T20:59:43.835Z,20.20
2023-07-17T21:02:29.506Z,20.20
2023-07-17T21:05:15.749Z,20.10
2023-07-17T21:08:01.327Z,19.90
2023-07-17T21:10:46.781Z,20.00
2023-07-17T21:13:33.020Z,20.00
2023-07-17T21:16:20.548Z,20.00
2023-07-17T21:19:06.396Z,20.00
2023-07-17T21:21:52.075Z,19.90
2023-07-17T21:24:38.327Z,19.90
2023-07-17T21:27:24.328Z,19.80
2023-07-17T21:30:11.410Z,19.60
2023-07-17T21:32:58.242Z,19.60
2023-07-17T21:35:44.824Z,19.70
2023-07-17T21:38:30.825Z,19.80
2023-07-17T21:41:16.640Z,19.80
2023-07-17T21:44:02.653Z,19.60
2023-07-17T21:46:48.572Z,19.60
2023-07-17T21:49:35.908Z,19.80
2023-07-17T21:52:21.826Z,19.70
2023-07-17T21:55:17.607Z,19.60
2023-07-17T21:58:03.287Z,19.60
2023-07-17T22:00:49.686Z,19.60
2023-07-17T22:03:35.925Z,19.60
2023-07-17T22:06:23.461Z,19.40
2023-07-17T22:09:09.390Z,19.50
2023-07-17T22:11:54.911Z,19.50
2023-07-17T22:14:40.741Z,19.60
2023-07-17T22:17:26.399Z,19.50
2023-07-17T22:20:17.728Z,19.40
2023-07-17T22:23:05.250Z,19.30
2023-07-17T22:25:51.306Z,19.30
2023-07-17T22:28:37.547Z,19.20
2023-07-17T22:31:23.892Z,19.20
2023-07-17T22:34:09.970Z,19.30
2023-07-17T22:36:56.153Z,19.40
2023-07-17T22:39:43.301Z,19.10
2023-07-17T22:42:29.200Z,19.00
2023-07-17T22:45:15.114Z,18.80
2023-07-17T22:48:00.946Z,18.80
2023-07-17T22:50:47.208Z,18.70
2023-07-17T22:53:33.871Z,18.70
2023-07-17T22:56:21.872Z,18.70
2023-07-17T22:59:07.557Z,18.60
2023-07-17T23:01:53.435Z,18.60
2023-07-17T23:04:39.814Z,18.60
2023-07-17T23:07:25.707Z,18.40
2023-07-17T23:10:12.292Z,18.50
2023-07-17T23:13:00.008Z,18.50
2023-07-17T23:15:45.643Z,18.50
2023-07-17T23:18:31.332Z,18.40
2023-07-17T23:21:20.528Z,18.40
2023-07-17T23:24:07.246Z,18.50
2023-07-17T23:26:53.022Z,18.60
2023-07-17T23:29:40.750Z,18.50
2023-07-17T23:32:26.659Z,18.60
2023-07-17T23:35:12.806Z,18.60
2023-07-17T23:37:58.448Z,18.50
2023-07-17T23:40:44.995Z,18.60
2023-07-17T23:43:31.628Z,18.70
2023-07-17T23:46:18.658Z,18.50
2023-07-17T23:49:04.361Z,18.60
2023-07-17T23:51:50.530Z,18.60
2023-07-17T23:54:36.408Z,18.60
2023-07-17T23:57:22.735Z,18.60
